Time;durP1;ratioP1;P1;durP2;ratioP2;P2;SDS_P1;SDS_P2;PMS_P1;PMS_P2;Temp;Humidity;BMP_temperature;BMP_pressure;BME280_temperature;BME280_humidity;BME280_pressure;Samples;Min_cycle;Max_cycle;Signal;HPM_P1;HPM_P2
2022/07/11 00:00:20;;;;;;;3.70;1.08;;;;;;;28.11;33.98;101802.66;6220158;23;20015;-48
2022/07/11 00:02:49;;;;;;;5.68;1.40;;;;;;;28.24;33.90;101822.13;6247007;23;20000;-58
2022/07/11 00:05:17;;;;;;;6.38;1.30;;;;;;;28.33;33.69;101823.97;6246956;23;20051;-48
2022/07/11 00:07:47;;;;;;;3.65;1.30;;;;;;;27.98;34.45;101820.09;6246911;23;20445;-57
2022/07/11 00:10:15;;;;;;;18.33;1.45;;;;;;;27.99;34.53;101827.13;6221016;23;20083;-43
2022/07/11 00:12:44;;;;;;;4.47;1.05;;;;;;;27.98;34.25;101817.44;6219782;23;20431;-57
2022/07/11 00:15:13;;;;;;;4.28;1.23;;;;;;;28.09;34.02;101812.28;6246985;23;20416;-44
2022/07/11 00:17:41;;;;;;;6.72;1.50;;;;;;;27.97;34.37;101807.78;6246801;23;20000;-44
2022/07/11 00:20:10;;;;;;;6.68;1.40;;;;;;;27.85;34.66;101813.84;6246671;23;20000;-53
2022/07/11 00:22:39;;;;;;;4.28;1.55;;;;;;;27.86;34.61;101812.06;6246894;23;20032;-47
2022/07/11 00:25:07;;;;;;;5.80;1.48;;;;;;;27.83;34.63;101807.66;6246576;23;20094;-47
2022/07/11 00:27:36;;;;;;;2.70;1.30;;;;;;;27.68;34.75;101795.19;6246939;23;20427;-44
2022/07/11 00:30:05;;;;;;;6.53;1.63;;;;;;;27.77;34.90;101814.63;6220150;23;20059;-49
2022/07/11 00:32:33;;;;;;;2.47;1.20;;;;;;;27.87;34.54;101809.47;6246487;23;20012;-46
2022/07/11 00:35:02;;;;;;;3.20;1.13;;;;;;;27.69;35.00;101810.16;6246934;23;20012;-53
2022/07/11 00:37:30;;;;;;;4.45;1.48;;;;;;;27.63;35.01;101809.19;6219564;23;20008;-44
2022/07/11 00:39:59;;;;;;;9.07;1.30;;;;;;;27.60;34.91;101804.78;6246257;23;20000;-44
2022/07/11 00:42:27;;;;;;;5.95;1.20;;;;;;;27.67;34.93;101808.38;6246543;23;20043;-47
2022/07/11 00:44:56;;;;;;;4.85;1.40;;;;;;;27.67;34.78;101803.97;6246566;23;20079;-43
2022/07/11 00:47:24;;;;;;;3.22;1.80;;;;;;;27.79;34.65;101805.84;6246683;23;20004;-57
2022/07/11 00:49:53;;;;;;;3.40;1.10;;;;;;;27.57;34.91;101788.94;6220540;23;20004;-49
2022/07/11 00:52:21;;;;;;;5.00;1.30;;;;;;;27.40;35.39;101781.69;6246135;23;20012;-58
2022/07/11 00:54:49;;;;;;;3.72;1.40;;;;;;;27.45;34.98;101784.38;6246610;23;20443;-45
2022/07/11 00:57:18;;;;;;;4.03;1.10;;;;;;;27.49;35.26;101793.22;6194739;23;20063;-43
2022/07/11 00:59:47;;;;;;;7.00;1.25;;;;;;;27.34;35.49;101804.44;6246657;23;20008;-46
2022/07/11 01:02:15;;;;;;;4.35;1.23;;;;;;;27.49;34.97;101788.84;6245236;23;20000;-44
2022/07/11 01:04:44;;;;;;;2.35;0.93;;;;;;;27.70;34.66;101790.81;6246392;23;20011;-43
2022/07/11 01:07:13;;;;;;;4.30;1.50;;;;;;;27.55;34.77;101778.34;6246713;23;20011;-44
2022/07/11 01:09:41;;;;;;;5.15;1.55;;;;;;;27.64;34.89;101784.59;6220344;23;20004;-51
2022/07/11 01:12:09;;;;;;;3.28;1.30;;;;;;;27.67;34.91;101796.06;6246122;23;20036;-57
2022/07/11 01:14:37;;;;;;;5.97;1.38;;;;;;;27.28;35.72;101790.34;6245705;23;20424;-45
2022/07/11 01:17:06;;;;;;;5.25;1.40;;;;;;;27.36;35.62;101779.88;6246018;23;20008;-43
2022/07/11 01:19:34;;;;;;;4.07;1.27;;;;;;;27.48;35.34;101784.44;6246081;23;20383;-44
2022/07/11 01:22:05;;;;;;;6.07;1.65;;;;;;;27.37;35.47;101789.56;6245792;23;20008;-53
2022/07/11 01:24:33;;;;;;;6.78;2.03;;;;;;;27.23;35.34;101759.53;6219512;23;20087;-45
2022/07/11 01:27:03;;;;;;;4.53;1.15;;;;;;;27.20;35.58;101770.94;6194602;23;20012;-44
2022/07/11 01:29:32;;;;;;;4.85;1.85;;;;;;;27.26;35.32;101764.84;6194063;23;20012;-44
2022/07/11 01:32:00;;;;;;;2.78;1.23;;;;;;;27.34;35.39;101775.47;6246484;23;20083;-44
2022/07/11 01:34:29;;;;;;;4.45;1.10;;;;;;;27.25;35.73;101769.22;6245888;23;20004;-44
2022/07/11 01:36:58;;;;;;;6.18;1.23;;;;;;;27.10;35.88;101746.22;6246112;23;20000;-44
2022/07/11 01:39:29;;;;;;;3.97;1.40;;;;;;;27.30;35.52;101764.03;6245599;23;20007;-44
2022/07/11 01:41:59;;;;;;;5.22;1.65;;;;;;;27.39;35.47;101768.47;6218991;23;20012;-44
2022/07/11 01:44:28;;;;;;;4.40;1.10;;;;;;;27.24;35.85;101756.03;6245967;23;20019;-57
2022/07/11 01:46:56;;;;;;;5.70;1.40;;;;;;;27.03;36.26;101759.31;6219681;23;20028;-56
2022/07/11 01:49:23;;;;;;;5.22;1.27;;;;;;;27.13;35.87;101751.53;6246296;23;20004;-57
2022/07/11 01:51:52;;;;;;;2.67;1.15;;;;;;;27.14;35.63;101747.13;6246132;23;20473;-46
2022/07/11 01:54:20;;;;;;;3.40;1.38;;;;;;;27.12;35.89;101756.78;6219104;23;20012;-51
2022/07/11 01:56:49;;;;;;;6.78;1.38;;;;;;;27.09;35.89;101762.00;6245896;23;20103;-57
2022/07/11 01:59:17;;;;;;;7.20;1.42;;;;;;;27.08;35.58;101754.97;6245428;23;20079;-44
2022/07/11 02:01:46;;;;;;;4.20;1.60;;;;;;;27.04;36.09;101759.31;6244972;23;20308;-57
2022/07/11 02:04:14;;;;;;;2.88;1.10;;;;;;;27.03;35.91;101752.28;6219322;23;20004;-55
2022/07/11 02:06:42;;;;;;;4.10;1.00;;;;;;;27.13;35.76;101755.91;6246098;23;20008;-44
2022/07/11 02:09:11;;;;;;;2.58;1.13;;;;;;;27.23;35.66;101762.16;6219181;23;20008;-44
2022/07/11 02:11:40;;;;;;;4.25;1.17;;;;;;;26.95;35.73;101735.50;6244778;23;20420;-44
2022/07/11 02:14:08;;;;;;;3.20;1.40;;;;;;;26.92;36.19;101746.00;6245902;23;20419;-53
2022/07/11 02:16:37;;;;;;;5.72;1.85;;;;;;;26.90;36.31;101748.59;6245266;23;20008;-48
2022/07/11 02:19:06;;;;;;;3.03;1.20;;;;;;;26.88;36.26;101746.81;6245798;23;20071;-47
2022/07/11 02:21:36;;;;;;;6.65;1.73;;;;;;;26.96;36.22;101746.06;6245615;23;20054;-45
2022/07/11 02:24:04;;;;;;;5.85;1.30;;;;;;;26.96;36.12;101753.94;6244058;23;20000;-55
2022/07/11 02:26:33;;;;;;;6.95;1.55;;;;;;;26.93;36.21;101751.28;6245749;23;20359;-49
2022/07/11 02:29:01;;;;;;;3.17;1.35;;;;;;;26.75;36.67;101754.53;6246039;23;20323;-47
2022/07/11 02:31:30;;;;;;;3.78;1.17;;;;;;;26.67;36.78;101757.06;6245811;23;20004;-51
2022/07/11 02:33:59;;;;;;;4.55;1.20;;;;;;;26.79;36.56;101747.53;6245682;23;20019;-46
2022/07/11 02:36:27;;;;;;;3.00;1.35;;;;;;;26.73;36.50;101750.09;6245100;23;20448;-57
2022/07/11 02:38:55;;;;;;;2.55;1.10;;;;;;;26.80;36.45;101749.34;6246053;23;20327;-56
2022/07/11 02:41:25;;;;;;;5.72;1.48;;;;;;;26.70;36.39;101753.56;6244767;23;20012;-56
2022/07/11 02:43:53;;;;;;;5.50;1.35;;;;;;;26.62;36.93;101755.22;6245807;23;20050;-50
2022/07/11 02:46:22;;;;;;;3.60;1.52;;;;;;;26.52;36.84;101741.91;6245207;23;20427;-48
2022/07/11 02:48:50;;;;;;;4.38;1.30;;;;;;;26.63;36.74;101751.72;6245773;23;20050;-49
2022/07/11 02:51:19;;;;;;;4.20;1.17;;;;;;;26.64;36.70;101748.22;6246297;23;20012;-45
2022/07/11 02:53:47;;;;;;;4.47;1.58;;;;;;;26.61;36.87;101742.94;6247913;23;20071;-56
2022/07/11 02:56:15;;;;;;;5.05;1.48;;;;;;;26.61;36.85;101738.53;6246677;23;20138;-44
2022/07/11 02:58:44;;;;;;;5.75;1.58;;;;;;;26.70;36.62;101748.31;6220725;23;20331;-45
2022/07/11 03:01:12;;;;;;;3.22;1.10;;;;;;;26.65;36.65;101739.44;6247562;23;20079;-46
2022/07/11 03:03:41;;;;;;;3.60;1.40;;;;;;;26.62;36.97;101739.44;6247220;23;20008;-46
2022/07/11 03:06:10;;;;;;;4.72;1.38;;;;;;;26.65;36.69;101736.81;6247703;23;20420;-56
2022/07/11 03:08:39;;;;;;;2.60;1.13;;;;;;;26.69;36.37;101734.28;6247781;23;20008;-44
2022/07/11 03:11:06;;;;;;;2.78;1.08;;;;;;;26.72;36.50;101745.72;6246778;23;20008;-46
2022/07/11 03:13:35;;;;;;;4.65;1.30;;;;;;;26.62;36.80;101749.97;6247515;23;20000;-58
2022/07/11 03:16:05;;;;;;;3.58;1.20;;;;;;;26.67;36.65;101750.88;6246965;23;20029;-53
2022/07/11 03:18:32;;;;;;;3.30;1.15;;;;;;;26.67;36.69;101750.88;6247112;23;20070;-57
2022/07/11 03:21:00;;;;;;;5.43;1.05;;;;;;;26.71;36.67;101741.31;6247612;23;20424;-49
2022/07/11 03:23:29;;;;;;;2.13;0.90;;;;;;;26.68;36.49;101745.66;6247125;23;20008;-57
2022/07/11 03:25:57;;;;;;;4.32;1.15;;;;;;;26.59;36.61;101744.66;6247405;23;20004;-44
2022/07/11 03:28:24;;;;;;;3.13;1.20;;;;;;;26.50;36.76;101741.00;6246950;23;20083;-57
2022/07/11 03:30:53;;;;;;;3.28;1.48;;;;;;;26.58;36.66;101742.88;6247514;23;20481;-50
2022/07/11 03:33:22;;;;;;;9.00;1.65;;;;;;;26.52;36.85;101749.81;6247138;23;20080;-48
2022/07/11 03:35:50;;;;;;;5.32;1.42;;;;;;;26.50;36.86;101751.53;6246767;23;20008;-49
2022/07/11 03:38:20;;;;;;;3.70;1.13;;;;;;;26.48;37.17;101760.28;6247078;23;20004;-53
2022/07/11 03:40:49;;;;;;;6.90;1.40;;;;;;;26.47;37.07;101755.88;6247281;23;20016;-48
2022/07/11 03:43:18;;;;;;;2.22;0.93;;;;;;;26.45;37.08;101749.69;6247096;23;20309;-44
2022/07/11 03:45:47;;;;;;;6.53;1.10;;;;;;;26.50;37.00;101754.16;6247185;23;20011;-49
2022/07/11 03:48:15;;;;;;;2.63;1.02;;;;;;;26.51;36.68;101753.28;6246833;23;20442;-48
2022/07/11 03:50:44;;;;;;;2.28;1.15;;;;;;;26.54;36.68;101755.97;6246762;23;20023;-47
2022/07/11 03:53:11;;;;;;;3.33;1.40;;;;;;;26.47;36.83;101763.75;6247067;23;20012;-57
2022/07/11 03:55:40;;;;;;;2.35;1.17;;;;;;;26.46;37.03;101756.72;6246834;23;20014;-50
2022/07/11 03:58:09;;;;;;;3.22;1.15;;;;;;;26.42;37.15;101765.44;6220600;23;20466;-57
2022/07/11 04:00:37;;;;;;;3.78;1.50;;;;;;;26.35;36.87;101767.97;6247167;23;20004;-47
2022/07/11 04:03:06;;;;;;;5.32;0.95;;;;;;;26.45;36.76;101757.59;6246332;23;20507;-49
2022/07/11 04:05:35;;;;;;;3.22;1.30;;;;;;;26.49;36.74;101767.31;6245421;23;20083;-51
2022/07/11 04:08:02;;;;;;;4.25;1.15;;;;;;;26.44;36.66;101769.88;6246615;23;20032;-58
2022/07/11 04:10:31;;;;;;;3.85;1.30;;;;;;;26.32;36.79;101754.78;6246876;23;20008;-49
2022/07/11 04:13:00;;;;;;;3.20;1.35;;;;;;;26.43;36.57;101778.63;6246974;23;20004;-46
2022/07/11 04:15:28;;;;;;;4.15;1.65;;;;;;;26.37;36.65;101768.00;6246224;23;20035;-52
2022/07/11 04:17:57;;;;;;;2.65;1.25;;;;;;;26.29;36.97;101765.25;6246957;23;20000;-44
2022/07/11 04:20:24;;;;;;;3.70;1.10;;;;;;;26.18;37.24;101769.47;6220549;23;20438;-55
2022/07/11 04:22:52;;;;;;;3.28;1.23;;;;;;;26.24;37.10;101773.06;6246147;23;20004;-45
2022/07/11 04:25:21;;;;;;;4.55;1.48;;;;;;;26.09;37.35;101783.31;6246775;23;20422;-54
2022/07/11 04:27:49;;;;;;;4.18;1.35;;;;;;;26.19;37.22;101773.84;6246959;23;20011;-55
2022/07/11 04:30:18;;;;;;;2.58;1.05;;;;;;;26.12;37.08;101774.59;6247061;23;20050;-44
2022/07/11 04:32:47;;;;;;;4.95;1.52;;;;;;;26.17;37.18;101775.56;6246519;23;20004;-50
2022/07/11 04:35:17;;;;;;;3.10;1.35;;;;;;;26.27;36.84;101781.88;6246741;23;20054;-44
2022/07/11 04:37:45;;;;;;;4.57;1.65;;;;;;;26.35;36.78;101782.88;6247133;23;20007;-47
2022/07/11 04:40:14;;;;;;;2.63;1.10;;;;;;;26.27;36.95;101776.63;6246685;23;20000;-55
2022/07/11 04:42:43;;;;;;;2.58;1.20;;;;;;;26.28;37.00;101773.13;6219327;23;20405;-44
2022/07/11 04:45:11;;;;;;;3.05;1.08;;;;;;;26.29;36.61;101778.41;6246216;23;20011;-52
2022/07/11 04:47:40;;;;;;;6.43;1.15;;;;;;;26.28;36.76;101774.00;6246590;23;20069;-55
2022/07/11 04:50:08;;;;;;;3.80;1.40;;;;;;;26.20;37.05;101768.59;6246106;23;20130;-49
2022/07/11 04:52:37;;;;;;;2.90;1.20;;;;;;;26.22;36.71;101780.03;6246111;23;20004;-48
2022/07/11 04:55:06;;;;;;;3.83;1.40;;;;;;;26.12;36.99;101778.13;6246161;23;20336;-57
2022/07/11 04:57:33;;;;;;;4.25;1.05;;;;;;;26.17;37.23;101780.84;6246638;23;20000;-55
2022/07/11 05:00:03;;;;;;;2.17;1.08;;;;;;;26.16;37.07;101787.81;6246941;23;20004;-45
2022/07/11 05:02:31;;;;;;;4.50;1.27;;;;;;;26.12;37.02;101775.50;6246678;23;20328;-57
2022/07/11 05:04:58;;;;;;;2.78;1.48;;;;;;;26.23;36.96;101780.91;6219045;23;20431;-57
2022/07/11 05:07:26;;;;;;;6.55;1.10;;;;;;;26.36;36.76;101782.91;6246910;23;20056;-47
2022/07/11 05:09:54;;;;;;;4.40;1.20;;;;;;;26.16;37.01;101774.66;6219701;23;20004;-56
2022/07/11 05:12:22;;;;;;;2.13;1.02;;;;;;;26.20;37.11;101794.03;6219614;23;20014;-52
2022/07/11 05:14:50;;;;;;;4.60;1.20;;;;;;;26.16;37.32;101795.72;6246517;23;20011;-50
2022/07/11 05:17:19;;;;;;;2.50;0.85;;;;;;;25.96;37.73;101795.34;6245910;23;20004;-47
2022/07/11 05:19:48;;;;;;;4.28;1.27;;;;;;;25.97;37.50;101789.22;6246726;23;20055;-50
2022/07/11 05:22:16;;;;;;;4.80;1.38;;;;;;;26.09;37.24;101788.56;6219534;23;20008;-50
2022/07/11 05:24:45;;;;;;;3.85;1.13;;;;;;;26.18;37.11;101794.00;6219452;23;20004;-53
2022/07/11 05:27:14;;;;;;;1.55;1.00;;;;;;;26.28;37.03;101783.66;6246229;23;20415;-50
2022/07/11 05:29:42;;;;;;;5.68;1.70;;;;;;;26.19;37.36;101780.00;6245812;23;20000;-52
2022/07/11 05:32:11;;;;;;;6.40;1.30;;;;;;;26.23;37.16;101789.72;6219404;23;20004;-48
2022/07/11 05:34:39;;;;;;;1.98;0.95;;;;;;;26.35;36.97;101793.38;6245815;23;20034;-54
2022/07/11 05:37:07;;;;;;;2.60;1.00;;;;;;;26.36;36.70;101795.16;6245642;23;20450;-47
2022/07/11 05:39:35;;;;;;;3.08;1.35;;;;;;;26.43;36.84;101797.03;6245916;23;20011;-45
2022/07/11 05:42:04;;;;;;;4.00;1.50;;;;;;;26.42;36.94;101783.84;6245688;23;20451;-55
2022/07/11 05:44:32;;;;;;;5.25;1.23;;;;;;;26.32;37.19;101794.22;6244580;23;20062;-45
2022/07/11 05:47:02;;;;;;;4.93;1.13;;;;;;;26.51;36.83;101784.00;6245734;23;20054;-46
2022/07/11 05:49:32;;;;;;;3.72;1.45;;;;;;;26.56;36.84;101790.19;6245616;23;20000;-55
2022/07/11 05:52:01;;;;;;;4.82;1.50;;;;;;;26.57;36.69;101796.38;6245838;23;20004;-45
2022/07/11 05:54:30;;;;;;;3.38;1.20;;;;;;;26.64;36.58;101793.84;6245668;23;20304;-57
2022/07/11 05:56:58;;;;;;;6.00;1.15;;;;;;;26.73;36.72;101793.09;6245899;23;20000;-45
2022/07/11 05:59:27;;;;;;;4.45;1.40;;;;;;;26.74;36.55;101793.97;6219456;23;19996;-58
2022/07/11 06:01:56;;;;;;;6.53;1.40;;;;;;;26.77;36.42;101794.91;6245607;23;20082;-49
2022/07/11 06:04:23;;;;;;;4.53;1.20;;;;;;;26.89;36.46;101788.94;6245525;23;20004;-45
2022/07/11 06:06:52;;;;;;;3.42;1.08;;;;;;;26.97;36.12;101796.97;6245409;23;20004;-52
2022/07/11 06:09:20;;;;;;;5.68;1.40;;;;;;;27.01;36.27;101787.38;6219285;23;20004;-44
2022/07/11 06:11:49;;;;;;;4.68;1.20;;;;;;;26.93;36.33;101792.53;6245724;23;20019;-57
2022/07/11 06:14:17;;;;;;;1.85;0.90;;;;;;;27.04;36.10;101797.94;6218730;23;20008;-54
2022/07/11 06:16:46;;;;;;;4.35;1.08;;;;;;;27.10;36.14;101791.00;6245336;23;20008;-49
2022/07/11 06:19:14;;;;;;;4.07;1.08;;;;;;;27.12;36.06;101789.28;6245534;23;20035;-58
2022/07/11 06:21:41;;;;;;;2.50;1.20;;;;;;;27.17;36.05;101788.44;6245820;23;20501;-46
2022/07/11 06:24:10;;;;;;;4.80;1.25;;;;;;;27.14;36.27;101795.41;6245733;23;20008;-44
2022/07/11 06:26:39;;;;;;;10.13;1.20;;;;;;;27.21;36.30;101791.13;6245007;23;20008;-49
2022/07/11 06:29:07;;;;;;;5.47;1.25;;;;;;;27.25;36.39;101787.66;6218401;23;20335;-48
2022/07/11 06:31:35;;;;;;;4.72;1.20;;;;;;;27.32;35.98;101798.28;6245915;23;20392;-45
2022/07/11 06:34:03;;;;;;;2.35;1.00;;;;;;;27.35;36.05;101778.13;6218719;23;20004;-54
2022/07/11 06:36:30;;;;;;;6.28;1.23;;;;;;;27.52;35.80;101795.91;6245578;23;20482;-46
2022/07/11 06:38:59;;;;;;;5.85;0.77;;;;;;;27.56;35.53;101788.03;6245387;23;20015;-57
2022/07/11 06:41:28;;;;;;;8.57;1.25;;;;;;;27.58;35.52;101799.47;6245341;23;20444;-47
2022/07/11 06:43:56;;;;;;;6.40;1.20;;;;;;;27.65;35.46;101800.44;6245145;23;20012;-47
2022/07/11 06:46:26;;;;;;;10.13;1.40;;;;;;;27.66;35.24;101770.56;6245777;23;20004;-53
2022/07/11 06:48:55;;;;;;;5.03;1.30;;;;;;;27.80;35.49;101785.66;6245731;23;20000;-45
2022/07/11 06:51:24;;;;;;;7.57;1.30;;;;;;;27.74;35.30;101782.09;6245738;23;20004;-45
2022/07/11 06:53:53;;;;;;;3.92;1.02;;;;;;;27.81;35.40;101796.22;6245148;23;20015;-44
2022/07/11 06:56:22;;;;;;;3.33;1.13;;;;;;;27.79;35.40;101799.72;6245798;23;20113;-45
2022/07/11 06:58:50;;;;;;;4.68;1.10;;;;;;;27.82;35.42;101786.53;6245334;23;20004;-44
2022/07/11 07:01:19;;;;;;;2.17;0.88;;;;;;;27.97;35.34;101793.72;6246035;23;20000;-44
2022/07/11 07:03:47;;;;;;;4.53;1.35;;;;;;;27.90;35.26;101784.88;6245783;23;20093;-45
2022/07/11 07:06:16;;;;;;;7.05;1.10;;;;;;;27.97;35.22;101789.31;6245875;23;20000;-47
2022/07/11 07:08:45;;;;;;;3.17;1.00;;;;;;;28.07;35.06;101789.41;6218458;23;20015;-47
2022/07/11 07:11:14;;;;;;;4.32;1.10;;;;;;;28.11;35.03;101796.53;6245503;23;20032;-57
2022/07/11 07:13:42;;;;;;;5.88;1.80;;;;;;;28.01;35.23;101793.75;6245230;23;20066;-52
2022/07/11 07:16:11;;;;;;;8.10;1.60;;;;;;;28.10;35.33;101802.66;6245128;23;20011;-50
2022/07/11 07:18:41;;;;;;;4.20;1.55;;;;;;;28.13;35.20;101795.66;6245692;23;20079;-52
2022/07/11 07:21:10;;;;;;;6.20;1.10;;;;;;;28.28;35.03;101804.56;6244876;23;20009;-44
2022/07/11 07:23:38;;;;;;;4.00;0.90;;;;;;;28.30;34.73;101810.72;6245357;23;20004;-52
2022/07/11 07:26:07;;;;;;;4.40;1.15;;;;;;;28.08;35.12;101785.91;6245771;23;20012;-47
2022/07/11 07:28:35;;;;;;;3.85;1.17;;;;;;;28.35;34.87;101809.91;6244526;23;20004;-50
2022/07/11 07:31:04;;;;;;;2.80;0.95;;;;;;;28.43;35.00;101807.31;6245524;23;20439;-49
2022/07/11 07:33:32;;;;;;;5.85;1.15;;;;;;;28.44;34.90;101785.31;6244938;23;20039;-47
2022/07/11 07:36:01;;;;;;;4.55;1.08;;;;;;;28.65;34.81;101805.69;6245169;23;20012;-45
2022/07/11 07:38:29;;;;;;;7.78;1.00;;;;;;;28.69;34.71;101788.13;6246111;23;20053;-51
2022/07/11 07:40:58;;;;;;;2.75;1.00;;;;;;;28.82;34.45;101797.03;6246944;23;20008;-48
2022/07/11 07:43:26;;;;;;;6.38;0.98;;;;;;;28.89;34.28;101798.84;6247288;23;20434;-48
2022/07/11 07:45:55;;;;;;;4.07;0.88;;;;;;;28.88;34.12;101807.63;6246914;23;20075;-45
2022/07/11 07:48:23;;;;;;;4.18;1.00;;;;;;;29.00;34.21;101804.19;6247078;23;20012;-44
2022/07/11 07:50:51;;;;;;;4.07;0.80;;;;;;;29.02;33.75;101801.53;6247187;23;20424;-45
2022/07/11 07:53:19;;;;;;;8.25;1.02;;;;;;;29.08;33.89;101810.38;6246785;23;20004;-44
2022/07/11 07:55:49;;;;;;;3.38;0.80;;;;;;;29.15;33.95;101811.28;6245079;23;20008;-44
2022/07/11 07:58:18;;;;;;;3.70;1.02;;;;;;;29.09;33.84;101827.97;6246914;23;20440;-46
2022/07/11 08:03:33;;;;;;;4.10;1.10;;;;;;;29.20;34.28;101830.69;6230356;23;20327;-54
2022/07/11 08:06:00;;;;;;;2.80;0.93;;;;;;;29.26;34.21;101836.00;6247168;23;20023;-55
2022/07/11 08:08:29;;;;;;;8.73;1.05;;;;;;;29.33;34.07;101830.72;6246687;23;19996;-46
2022/07/11 08:11:00;;;;;;;3.15;1.00;;;;;;;29.34;34.17;101827.22;6247396;23;20071;-43
2022/07/11 08:13:28;;;;;;;2.72;0.93;;;;;;;29.31;33.88;101820.16;6221515;23;20003;-47
2022/07/11 08:15:57;;;;;;;2.17;1.05;;;;;;;29.43;33.94;101831.69;6246795;23;20384;-44
2022/07/11 08:18:26;;;;;;;3.42;1.10;;;;;;;29.39;34.13;101823.72;6246860;23;20012;-44
2022/07/11 08:20:56;;;;;;;2.92;1.00;;;;;;;29.54;33.61;101827.28;6246714;23;20079;-44
2022/07/11 08:23:25;;;;;;;2.97;1.08;;;;;;;29.54;33.49;101817.63;6246366;23;20004;-44
2022/07/11 08:25:53;;;;;;;3.08;0.98;;;;;;;29.56;33.54;101807.94;6220005;23;20004;-52
2022/07/11 08:28:22;;;;;;;4.70;0.90;;;;;;;29.59;33.62;101800.91;6220047;23;20004;-43
2022/07/11 08:30:51;;;;;;;4.28;0.93;;;;;;;29.63;33.70;101800.00;6220292;23;20431;-44
2022/07/11 08:33:20;;;;;;;1.38;0.70;;;;;;;29.71;33.34;101808.84;6195611;23;20332;-53
2022/07/11 08:35:48;;;;;;;3.03;0.93;;;;;;;29.77;33.16;101805.31;6246517;23;20003;-52
2022/07/11 08:38:17;;;;;;;2.92;0.93;;;;;;;29.79;33.25;101799.16;6245439;23;20094;-54
2022/07/11 08:40:45;;;;;;;3.28;1.10;;;;;;;29.85;33.26;101796.53;6246933;23;20046;-43
2022/07/11 08:43:19;;;;;;;3.90;0.85;;;;;;;29.97;32.88;101805.38;6246593;23;20328;-44
2022/07/11 08:45:48;;;;;;;3.08;0.80;;;;;;;30.02;32.89;101798.31;6247231;23;20004;-44
2022/07/11 08:48:17;;;;;;;4.15;0.80;;;;;;;29.99;33.06;101790.38;6246485;23;20087;-44
2022/07/11 08:50:46;;;;;;;2.50;0.70;;;;;;;30.10;32.78;101798.31;6219970;23;20011;-44
2022/07/11 08:53:15;;;;;;;3.80;1.02;;;;;;;30.16;32.60;101795.69;6219719;23;20042;-43
2022/07/11 08:55:43;;;;;;;6.03;1.00;;;;;;;30.19;32.69;101793.06;6246522;23;20462;-49
2022/07/11 08:58:12;;;;;;;2.97;0.95;;;;;;;30.04;32.68;101758.63;6246067;23;20026;-43
2022/07/11 09:00:42;;;;;;;2.30;0.80;;;;;;;30.19;32.61;101784.22;6220226;23;20004;-43
2022/07/11 09:03:14;;;;;;;6.68;0.73;;;;;;;30.21;32.45;101783.31;6195657;23;20000;-43
2022/07/11 09:05:43;;;;;;;1.98;0.90;;;;;;;30.24;32.53;101782.47;6246822;23;20533;-43
2022/07/11 09:08:11;;;;;;;1.05;0.50;;;;;;;30.22;32.26;101752.47;6246714;23;20008;-44
2022/07/11 09:10:40;;;;;;;4.28;0.80;;;;;;;30.42;32.10;101770.94;6219397;23;20004;-43
2022/07/11 09:13:11;;;;;;;2.42;1.10;;;;;;;30.37;32.45;101772.72;6246702;23;20011;-44
2022/07/11 09:15:42;;;;;;;3.30;1.20;;;;;;;30.42;32.12;101779.78;6246530;23;20044;-43
2022/07/11 09:18:39;;;;;;;4.45;0.98;;;;;;;30.41;32.40;101769.19;6246658;23;20019;-49
2022/07/11 09:26:48;;;;;;;5.43;0.82;;;;;;;30.61;31.89;101763.91;6240871;23;20004;-44
2022/07/11 09:29:20;;;;;;;1.45;0.70;;;;;;;30.57;31.64;101762.16;6246720;23;20023;-43
2022/07/11 09:31:49;;;;;;;4.90;0.77;;;;;;;30.52;31.52;101754.19;6220100;23;20000;-43
2022/07/11 09:34:19;;;;;;;3.85;1.00;;;;;;;30.68;31.34;101765.63;6246516;23;20005;-50
2022/07/11 09:36:54;;;;;;;2.17;0.80;;;;;;;30.64;31.63;101757.72;6244723;23;20004;-50
2022/07/11 09:39:25;;;;;;;1.88;0.80;;;;;;;30.69;31.80;101758.59;6245387;23;20503;-43
2022/07/11 09:41:54;;;;;;;3.20;0.60;;;;;;;30.77;31.94;101755.03;6245983;23;20026;-51
2022/07/11 09:44:28;;;;;;;3.35;0.82;;;;;;;30.86;31.57;101764.69;6246087;23;20008;-43
2022/07/11 09:46:57;;;;;;;5.18;0.90;;;;;;;30.84;31.96;101754.97;6219334;23;20416;-43
2022/07/11 09:49:36;;;;;;;4.80;1.30;;;;;;;30.85;32.22;101756.75;6245958;23;20000;-52
2022/07/11 09:52:14;;;;;;;2.53;0.80;;;;;;;30.87;31.65;101758.50;6245433;23;20474;-58
2022/07/11 09:55:01;;;;;;;6.15;1.10;;;;;;;30.89;31.55;101753.19;6219216;23;20343;-45
2022/07/11 09:57:40;;;;;;;2.85;0.90;;;;;;;30.91;31.67;101751.44;6245712;23;20104;-52
2022/07/11 10:00:11;;;;;;;4.57;1.10;;;;;;;30.88;31.86;101762.03;6219112;23;20008;-43
2022/07/11 10:02:40;;;;;;;2.35;0.70;;;;;;;30.93;31.80;101762.91;6219155;23;20066;-43
2022/07/11 10:05:09;;;;;;;2.90;0.90;;;;;;;30.85;31.07;101767.34;6245728;23;20011;-49
2022/07/11 10:07:37;;;;;;;6.30;0.93;;;;;;;30.98;31.11;101758.44;6246144;23;20058;-45
2022/07/11 10:10:07;;;;;;;1.40;0.82;;;;;;;30.94;31.12;101755.81;6244732;23;20000;-47
2022/07/11 10:12:39;;;;;;;7.32;1.23;;;;;;;30.95;31.27;101754.94;6245666;23;20061;-44
2022/07/11 10:15:10;;;;;;;3.42;0.88;;;;;;;30.84;31.42;101754.97;6245478;23;20011;-52
2022/07/11 10:18:07;;;;;;;1.92;0.80;;;;;;;30.84;31.72;101768.22;6245805;23;20007;-53
2022/07/11 10:20:41;;;;;;;6.50;1.25;;;;;;;30.94;31.38;101762.03;6240133;23;20004;-49
2022/07/11 10:23:29;;;;;;;4.78;1.13;;;;;;;30.93;30.95;101754.97;6245922;23;20004;-43
2022/07/11 10:26:19;;;;;;;2.38;0.77;;;;;;;30.87;31.36;101734.66;6240017;23;20370;-51
2022/07/11 10:28:49;;;;;;;2.65;0.80;;;;;;;30.99;31.06;101740.81;6231942;23;20004;-43
2022/07/11 10:31:23;;;;;;;1.73;0.70;;;;;;;30.93;31.52;101739.06;6220001;23;20000;-51
2022/07/11 10:34:15;;;;;;;4.38;0.70;;;;;;;30.97;31.75;101751.38;6245509;23;20011;-44
2022/07/11 10:36:44;;;;;;;2.92;0.60;;;;;;;31.06;31.53;101750.47;6245612;23;20007;-43
2022/07/11 10:39:18;;;;;;;2.95;0.90;;;;;;;31.14;30.79;101751.34;6245645;23;20011;-44
2022/07/11 10:41:47;;;;;;;3.70;1.00;;;;;;;31.12;31.16;101752.19;6193102;23;20016;-49
2022/07/11 10:44:14;;;;;;;2.97;1.00;;;;;;;31.09;31.43;101757.53;6244992;23;20008;-43
2022/07/11 10:46:43;;;;;;;3.33;0.80;;;;;;;31.03;31.18;101747.81;6218874;23;20041;-44
2022/07/11 10:49:15;;;;;;;4.07;0.90;;;;;;;31.20;31.39;101766.34;6245460;23;20068;-43
2022/07/11 10:52:02;;;;;;;3.17;0.90;;;;;;;31.17;31.58;101763.69;6246231;23;20004;-44
2022/07/11 10:55:08;;;;;;;2.83;0.77;;;;;;;31.03;31.29;101738.13;6245755;23;20067;-44
2022/07/11 10:57:56;;;;;;;3.00;0.95;;;;;;;31.18;31.32;101750.47;6243488;23;20036;-43
2022/07/11 11:00:25;;;;;;;4.10;0.80;;;;;;;31.17;30.94;101740.75;6240275;23;20028;-44
2022/07/11 11:03:13;;;;;;;3.08;0.98;;;;;;;31.25;30.84;101743.34;6245818;23;20015;-44
2022/07/11 11:05:43;;;;;;;3.60;1.08;;;;;;;31.27;30.78;101738.94;6245130;23;20004;-44
2022/07/11 11:08:39;;;;;;;3.40;0.68;;;;;;;31.19;30.85;101725.69;6245887;23;20019;-46
2022/07/11 11:11:36;;;;;;;2.45;0.77;;;;;;;31.27;30.84;101735.38;6240425;23;20004;-45
2022/07/11 11:14:23;;;;;;;4.10;1.10;;;;;;;31.28;30.49;101732.69;6247720;23;20027;-57
2022/07/11 11:16:52;;;;;;;2.10;0.88;;;;;;;31.31;30.50;101740.66;6247402;23;20008;-44
2022/07/11 11:19:47;;;;;;;4.05;0.90;;;;;;;31.33;30.21;101743.31;6247664;23;20482;-43
2022/07/11 11:22:17;;;;;;;1.77;0.50;;;;;;;31.35;30.67;101736.22;6241223;23;20484;-48
2022/07/11 11:24:46;;;;;;;4.18;0.70;;;;;;;31.37;30.81;101740.63;6247585;23;20486;-44
2022/07/11 11:27:19;;;;;;;2.95;1.08;;;;;;;31.28;31.23;101737.13;6247170;23;20118;-43
2022/07/11 11:29:48;;;;;;;1.00;0.60;;;;;;;31.15;30.92;101707.16;6247332;23;20048;-53
2022/07/11 11:32:15;;;;;;;4.45;0.85;;;;;;;31.35;30.55;101721.19;6247799;23;20094;-49
2022/07/11 11:34:43;;;;;;;1.88;0.82;;;;;;;31.39;30.61;101730.00;6247082;23;20091;-48
2022/07/11 11:37:12;;;;;;;1.90;0.75;;;;;;;31.41;30.50;101722.91;6220687;23;20003;-45
2022/07/11 11:39:41;;;;;;;1.45;0.70;;;;;;;31.49;29.68;101734.34;6247275;23;20028;-44
2022/07/11 11:42:13;;;;;;;4.65;0.90;;;;;;;31.58;29.97;101730.75;6247597;23;20012;-44
2022/07/11 11:44:53;;;;;;;1.73;0.80;;;;;;;31.54;30.10;101726.38;6247798;23;20004;-44